sensor_id;sensor_type;location;lat;lon;timestamp;noise_LAeq;noise_LA_min;noise_LA_max;noise_LA01;noise_LA95
69615;Laerm;56821;52.486;4.680;2023-06-19T00:00:07;36.80;34.94;40.22;;
69615;Laerm;56821;52.486;4.680;2023-06-19T00:00:22;35.20;32.97;37.99;;
69615;Laerm;56821;52.486;4.680;2023-06-19T00:00:33;34.79;32.70;39.06;;
69615;Laerm;56821;52.486;4.680;2023-06-19T00:00:43;34.27;32.68;36.39;;
69615;Laerm;56821;52.486;4.680;2023-06-19T00:00:53;33.85;32.11;36.36;;
69615;Laerm;56821;52.486;4.680;2023-06-19T00:01:03;35.88;33.77;39.86;;
69615;Laerm;56821;52.486;4.680;2023-06-19T00:01:14;35.30;33.27;38.76;;
69615;Laerm;56821;52.486;4.680;2023-06-19T00:01:24;35.78;32.94;39.28;;
69615;Laerm;56821;52.486;4.680;2023-06-19T00:01:34;35.86;33.79;39.09;;
69615;Laerm;56821;52.486;4.680;2023-06-19T00:01:44;36.35;33.04;40.98;;
69615;Laerm;56821;52.486;4.680;2023-06-19T00:01:54;36.57;34.17;39.78;;
69615;Laerm;56821;52.486;4.680;2023-06-19T00:02:05;36.12;33.75;39.25;;
69615;Laerm;56821;52.486;4.680;2023-06-19T00:02:15;35.71;32.43;40.19;;
69615;Laerm;56821;52.486;4.680;2023-06-19T00:02:25;34.66;32.44;37.08;;
69615;Laerm;56821;52.486;4.680;2023-06-19T00:02:36;34.24;32.18;37.76;;
69615;Laerm;56821;52.486;4.680;2023-06-19T00:02:46;34.61;32.72;36.97;;
69615;Laerm;56821;52.486;4.680;2023-06-19T00:02:56;35.80;32.77;41.46;;
69615;Laerm;56821;52.486;4.680;2023-06-19T00:03:07;36.17;34.09;39.25;;
69615;Laerm;56821;52.486;4.680;2023-06-19T00:03:17;35.93;33.84;40.37;;
69615;Laerm;56821;52.486;4.680;2023-06-19T00:03:27;35.70;33.23;40.11;;
69615;Laerm;56821;52.486;4.680;2023-06-19T00:03:38;36.18;33.47;39.11;;
69615;Laerm;56821;52.486;4.680;2023-06-19T00:03:48;36.94;34.20;43.95;;
69615;Laerm;56821;52.486;4.680;2023-06-19T00:03:58;37.06;33.32;41.83;;
69615;Laerm;56821;52.486;4.680;2023-06-19T00:04:09;35.60;32.93;39.48;;
69615;Laerm;56821;52.486;4.680;2023-06-19T00:04:19;35.43;33.42;39.76;;
69615;Laerm;56821;52.486;4.680;2023-06-19T00:04:29;35.23;32.89;37.72;;
69615;Laerm;56821;52.486;4.680;2023-06-19T00:04:39;35.14;33.21;39.50;;
69615;Laerm;56821;52.486;4.680;2023-06-19T00:04:50;34.56;32.44;38.96;;
69615;Laerm;56821;52.486;4.680;2023-06-19T00:05:00;34.23;32.58;36.22;;
69615;Laerm;56821;52.486;4.680;2023-06-19T00:05:11;35.02;32.39;41.31;;
69615;Laerm;56821;52.486;4.680;2023-06-19T00:05:22;34.17;32.09;39.03;;
69615;Laerm;56821;52.486;4.680;2023-06-19T00:05:33;35.44;32.78;41.29;;
69615;Laerm;56821;52.486;4.680;2023-06-19T00:05:43;40.23;37.58;44.90;;
69615;Laerm;56821;52.486;4.680;2023-06-19T00:05:53;38.64;35.98;41.22;;
69615;Laerm;56821;52.486;4.680;2023-06-19T00:06:05;36.34;34.34;38.17;;
69615;Laerm;56821;52.486;4.680;2023-06-19T00:06:15;36.01;33.89;40.33;;
69615;Laerm;56821;52.486;4.680;2023-06-19T00:06:25;34.97;32.89;38.27;;
69615;Laerm;56821;52.486;4.680;2023-06-19T00:06:35;34.91;32.98;37.65;;
69615;Laerm;56821;52.486;4.680;2023-06-19T00:06:46;38.05;34.61;43.87;;
69615;Laerm;56821;52.486;4.680;2023-06-19T00:06:56;36.06;33.92;38.07;;
69615;Laerm;56821;52.486;4.680;2023-06-19T00:07:06;35.69;33.92;38.30;;
69615;Laerm;56821;52.486;4.680;2023-06-19T00:07:16;35.14;33.22;39.63;;
69615;Laerm;56821;52.486;4.680;2023-06-19T00:07:26;35.17;33.13;37.33;;
69615;Laerm;56821;52.486;4.680;2023-06-19T00:07:37;35.69;32.84;39.62;;
69615;Laerm;56821;52.486;4.680;2023-06-19T00:07:47;34.63;32.77;41.18;;
69615;Laerm;56821;52.486;4.680;2023-06-19T00:07:57;34.09;32.22;35.54;;
69615;Laerm;56821;52.486;4.680;2023-06-19T00:08:08;33.24;31.61;34.37;;
69615;Laerm;56821;52.486;4.680;2023-06-19T00:08:18;33.75;32.10;40.93;;
69615;Laerm;56821;52.486;4.680;2023-06-19T00:08:28;34.54;32.10;38.02;;
69615;Laerm;56821;52.486;4.680;2023-06-19T00:08:38;35.40;32.92;40.19;;
69615;Laerm;56821;52.486;4.680;2023-06-19T00:08:51;35.85;33.16;43.48;;
69615;Laerm;56821;52.486;4.680;2023-06-19T00:09:01;35.44;32.87;39.39;;
69615;Laerm;56821;52.486;4.680;2023-06-19T00:09:11;34.72;32.36;40.81;;
69615;Laerm;56821;52.486;4.680;2023-06-19T00:09:22;33.38;31.92;35.15;;
69615;Laerm;56821;52.486;4.680;2023-06-19T00:09:32;33.29;31.57;35.24;;
69615;Laerm;56821;52.486;4.680;2023-06-19T00:09:42;34.73;32.25;38.79;;
69615;Laerm;56821;52.486;4.680;2023-06-19T00:09:53;35.48;33.10;40.27;;
69615;Laerm;56821;52.486;4.680;2023-06-19T00:10:03;36.57;33.25;43.02;;
69615;Laerm;56821;52.486;4.680;2023-06-19T00:10:14;35.46;33.11;39.15;;
69615;Laerm;56821;52.486;4.680;2023-06-19T00:10:24;36.56;34.09;39.36;;
69615;Laerm;56821;52.486;4.680;2023-06-19T00:10:34;35.26;32.91;37.41;;
69615;Laerm;56821;52.486;4.680;2023-06-19T00:10:45;35.08;32.98;37.66;;
69615;Laerm;56821;52.486;4.680;2023-06-19T00:10:55;33.68;31.93;35.62;;
69615;Laerm;56821;52.486;4.680;2023-06-19T00:11:05;33.92;31.88;37.30;;
69615;Laerm;56821;52.486;4.680;2023-06-19T00:11:15;34.27;32.49;41.72;;
69615;Laerm;56821;52.486;4.680;2023-06-19T00:11:25;33.44;31.85;34.86;;
69615;Laerm;56821;52.486;4.680;2023-06-19T00:11:36;33.78;32.29;35.70;;
69615;Laerm;56821;52.486;4.680;2023-06-19T00:11:46;36.72;32.77;41.79;;
69615;Laerm;56821;52.486;4.680;2023-06-19T00:11:56;38.51;35.05;41.27;;
69615;Laerm;56821;52.486;4.680;2023-06-19T00:12:08;35.13;32.18;39.69;;
69615;Laerm;56821;52.486;4.680;2023-06-19T00:12:18;34.61;31.99;41.39;;
69615;Laerm;56821;52.486;4.680;2023-06-19T00:12:29;34.63;32.32;37.54;;
69615;Laerm;56821;52.486;4.680;2023-06-19T00:12:39;34.12;31.75;36.60;;
69615;Laerm;56821;52.486;4.680;2023-06-19T00:12:49;35.37;32.82;39.68;;
69615;Laerm;56821;52.486;4.680;2023-06-19T00:13:00;35.59;33.52;40.76;;
69615;Laerm;56821;52.486;4.680;2023-06-19T00:13:10;35.53;33.44;42.37;;
69615;Laerm;56821;52.486;4.680;2023-06-19T00:13:20;36.01;33.63;39.27;;
69615;Laerm;56821;52.486;4.680;2023-06-19T00:13:31;35.64;33.24;39.03;;
69615;Laerm;56821;52.486;4.680;2023-06-19T00:13:43;35.51;32.99;38.32;;
69615;Laerm;56821;52.486;4.680;2023-06-19T00:13:53;34.34;31.97;36.87;;
69615;Laerm;56821;52.486;4.680;2023-06-19T00:14:03;34.60;32.45;39.81;;
69615;Laerm;56821;52.486;4.680;2023-06-19T00:14:14;34.67;32.57;36.80;;
69615;Laerm;56821;52.486;4.680;2023-06-19T00:14:24;34.59;32.47;36.86;;
69615;Laerm;56821;52.486;4.680;2023-06-19T00:14:34;36.70;33.08;39.97;;
69615;Laerm;56821;52.486;4.680;2023-06-19T00:14:46;35.66;32.76;39.83;;
69615;Laerm;56821;52.486;4.680;2023-06-19T00:14:57;33.99;31.98;37.96;;
69615;Laerm;56821;52.486;4.680;2023-06-19T00:15:07;34.14;31.79;39.29;;
69615;Laerm;56821;52.486;4.680;2023-06-19T00:15:19;38.14;34.89;47.23;;
69615;Laerm;56821;52.486;4.680;2023-06-19T00:15:29;37.38;34.13;43.02;;
69615;Laerm;56821;52.486;4.680;2023-06-19T00:15:40;35.73;33.80;38.78;;
69615;Laerm;56821;52.486;4.680;2023-06-19T00:15:50;35.89;33.40;42.07;;
69615;Laerm;56821;52.486;4.680;2023-06-19T00:16:00;37.68;34.09;42.34;;
69615;Laerm;56821;52.486;4.680;2023-06-19T00:16:10;36.09;32.92;39.57;;
69615;Laerm;56821;52.486;4.680;2023-06-19T00:16:21;34.89;32.35;37.68;;
69615;Laerm;56821;52.486;4.680;2023-06-19T00:16:31;35.83;33.26;41.27;;
69615;Laerm;56821;52.486;4.680;2023-06-19T00:16:41;35.78;33.97;38.53;;
69615;Laerm;56821;52.486;4.680;2023-06-19T00:16:52;35.53;33.31;38.02;;
69615;Laerm;56821;52.486;4.680;2023-06-19T00:17:02;34.72;32.37;38.40;;
69615;Laerm;56821;52.486;4.680;2023-06-19T00:17:12;35.36;32.96;39.57;;
69615;Laerm;56821;52.486;4.680;2023-06-19T00:17:27;36.74;33.38;41.72;;
69615;Laerm;56821;52.486;4.680;2023-06-19T00:17:37;38.63;36.07;45.52;;
69615;Laerm;56821;52.486;4.680;2023-06-19T00:17:47;38.02;35.45;40.52;;
69615;Laerm;56821;52.486;4.680;2023-06-19T00:17:58;38.99;36.88;43.43;;
69615;Laerm;56821;52.486;4.680;2023-06-19T00:18:09;38.04;35.96;41.68;;
69615;Laerm;56821;52.486;4.680;2023-06-19T00:18:20;37.41;34.72;42.13;;
69615;Laerm;56821;52.486;4.680;2023-06-19T00:18:30;41.00;38.03;44.31;;
69615;Laerm;56821;52.486;4.680;2023-06-19T00:18:41;38.33;35.66;42.20;;
69615;Laerm;56821;52.486;4.680;2023-06-19T00:18:51;37.24;34.63;40.21;;
69615;Laerm;56821;52.486;4.680;2023-06-19T00:19:05;33.90;32.53;35.81;;
69615;Laerm;56821;52.486;4.680;2023-06-19T00:19:15;33.06;31.48;34.59;;
69615;Laerm;56821;52.486;4.680;2023-06-19T00:19:27;33.60;31.55;35.23;;
69615;Laerm;56821;52.486;4.680;2023-06-19T00:19:37;34.92;32.88;38.05;;
69615;Laerm;56821;52.486;4.680;2023-06-19T00:19:47;34.37;32.75;36.40;;
69615;Laerm;56821;52.486;4.680;2023-06-19T00:19:58;35.80;33.05;44.60;;
69615;Laerm;56821;52.486;4.680;2023-06-19T00:20:09;35.28;32.60;41.46;;
69615;Laerm;56821;52.486;4.680;2023-06-19T00:20:19;34.24;31.70;38.85;;
69615;Laerm;56821;52.486;4.680;2023-06-19T00:20:29;33.47;31.59;35.32;;
69615;Laerm;56821;52.486;4.680;2023-06-19T00:20:39;34.41;32.96;36.71;;
69615;Laerm;56821;52.486;4.680;2023-06-19T00:20:50;35.44;33.49;38.67;;
69615;Laerm;56821;52.486;4.680;2023-06-19T00:21:00;36.20;33.24;45.39;;
69615;Laerm;56821;52.486;4.680;2023-06-19T00:21:10;36.63;33.77;40.60;;
69615;Laerm;56821;52.486;4.680;2023-06-19T00:21:24;36.45;34.72;38.86;;
69615;Laerm;56821;52.486;4.680;2023-06-19T00:21:35;37.54;35.29;39.97;;
69615;Laerm;56821;52.486;4.680;2023-06-19T00:21:45;36.76;34.59;38.78;;
69615;Laerm;56821;52.486;4.680;2023-06-19T00:21:56;36.21;34.55;38.29;;
69615;Laerm;56821;52.486;4.680;2023-06-19T00:22:07;35.58;33.65;38.56;;
69615;Laerm;56821;52.486;4.680;2023-06-19T00:22:17;36.49;33.87;40.64;;
69615;Laerm;56821;52.486;4.680;2023-06-19T00:22:27;35.78;33.14;44.21;;
69615;Laerm;56821;52.486;4.680;2023-06-19T00:22:37;35.23;33.20;40.69;;
69615;Laerm;56821;52.486;4.680;2023-06-19T00:22:48;34.29;32.12;36.74;;
69615;Laerm;56821;52.486;4.680;2023-06-19T00:23:01;34.36;32.62;36.12;;
69615;Laerm;56821;52.486;4.680;2023-06-19T00:23:12;35.12;31.92;39.42;;
69615;Laerm;56821;52.486;4.680;2023-06-19T00:23:24;36.90;33.80;41.31;;
69615;Laerm;56821;52.486;4.680;2023-06-19T00:23:34;39.13;35.17;45.53;;
69615;Laerm;56821;52.486;4.680;2023-06-19T00:23:45;35.42;33.49;40.19;;
69615;Laerm;56821;52.486;4.680;2023-06-19T00:23:55;36.11;33.50;41.73;;
69615;Laerm;56821;52.486;4.680;2023-06-19T00:24:05;36.46;34.44;39.66;;
69615;Laerm;56821;52.486;4.680;2023-06-19T00:24:16;37.13;34.78;41.58;;
69615;Laerm;56821;52.486;4.680;2023-06-19T00:24:26;36.45;34.58;40.47;;
69615;Laerm;56821;52.486;4.680;2023-06-19T00:24:36;35.87;33.88;38.94;;
69615;Laerm;56821;52.486;4.680;2023-06-19T00:24:46;35.10;32.44;37.38;;
69615;Laerm;56821;52.486;4.680;2023-06-19T00:24:56;37.07;33.46;40.90;;
69615;Laerm;56821;52.486;4.680;2023-06-19T00:25:07;40.10;36.67;43.40;;
69615;Laerm;56821;52.486;4.680;2023-06-19T00:25:20;35.74;33.40;39.14;;
69615;Laerm;56821;52.486;4.680;2023-06-19T00:25:30;34.62;32.60;36.39;;
69615;Laerm;56821;52.486;4.680;2023-06-19T00:25:40;33.75;32.13;35.15;;
69615;Laerm;56821;52.486;4.680;2023-06-19T00:25:51;33.78;32.31;39.43;;
69615;Laerm;56821;52.486;4.680;2023-06-19T00:26:02;33.43;32.00;35.08;;
69615;Laerm;56821;52.486;4.680;2023-06-19T00:26:13;33.49;31.47;36.24;;
69615;Laerm;56821;52.486;4.680;2023-06-19T00:26:24;32.71;31.26;34.19;;
69615;Laerm;56821;52.486;4.680;2023-06-19T00:26:35;33.35;31.32;43.96;;
69615;Laerm;56821;52.486;4.680;2023-06-19T00:26:45;33.45;32.15;34.98;;
69615;Laerm;56821;52.486;4.680;2023-06-19T00:26:56;34.66;32.48;41.02;;
69615;Laerm;56821;52.486;4.680;2023-06-19T00:27:06;35.75;32.66;41.18;;
69615;Laerm;56821;52.486;4.680;2023-06-19T00:27:16;34.53;32.41;36.49;;
69615;Laerm;56821;52.486;4.680;2023-06-19T00:27:26;35.39;33.28;37.57;;
69615;Laerm;56821;52.486;4.680;2023-06-19T00:27:37;35.40;33.24;38.72;;
69615;Laerm;56821;52.486;4.680;2023-06-19T00:27:47;36.34;33.31;40.39;;
69615;Laerm;56821;52.486;4.680;2023-06-19T00:27:57;35.04;32.74;38.16;;
69615;Laerm;56821;52.486;4.680;2023-06-19T00:28:08;34.93;32.33;37.62;;
69615;Laerm;56821;52.486;4.680;2023-06-19T00:28:21;35.48;33.30;37.71;;
69615;Laerm;56821;52.486;4.680;2023-06-19T00:28:31;37.16;34.77;39.29;;
69615;Laerm;56821;52.486;4.680;2023-06-19T00:28:42;38.08;34.69;44.10;;
69615;Laerm;56821;52.486;4.680;2023-06-19T00:28:53;36.84;33.96;41.68;;
69615;Laerm;56821;52.486;4.680;2023-06-19T00:29:03;35.22;33.05;38.45;;
69615;Laerm;56821;52.486;4.680;2023-06-19T00:29:14;34.66;33.24;38.03;;
69615;Laerm;56821;52.486;4.680;2023-06-19T00:29:24;34.33;32.18;37.07;;
69615;Laerm;56821;52.486;4.680;2023-06-19T00:29:38;33.66;31.63;36.92;;
69615;Laerm;56821;52.486;4.680;2023-06-19T00:29:48;36.18;32.35;40.12;;
69615;Laerm;56821;52.486;4.680;2023-06-19T00:29:58;37.27;32.83;44.99;;
69615;Laerm;56821;52.486;4.680;2023-06-19T00:30:12;33.87;32.19;35.48;;
69615;Laerm;56821;52.486;4.680;2023-06-19T00:30:22;33.09;31.24;35.10;;
69615;Laerm;56821;52.486;4.680;2023-06-19T00:30:33;34.36;31.79;37.71;;
69615;Laerm;56821;52.486;4.680;2023-06-19T00:30:43;35.73;32.37;42.22;;
69615;Laerm;56821;52.486;4.680;2023-06-19T00:30:54;36.29;33.91;39.49;;
69615;Laerm;56821;52.486;4.680;2023-06-19T00:31:05;37.70;34.42;42.17;;
69615;Laerm;56821;52.486;4.680;2023-06-19T00:31:17;39.10;34.66;43.71;;
69615;Laerm;56821;52.486;4.680;2023-06-19T00:31:28;38.42;34.45;43.59;;
69615;Laerm;56821;52.486;4.680;2023-06-19T00:31:39;36.38;33.35;41.43;;
69615;Laerm;56821;52.486;4.680;2023-06-19T00:31:49;35.43;32.66;39.04;;
69615;Laerm;56821;52.486;4.680;2023-06-19T00:32:00;34.35;32.53;37.24;;
69615;Laerm;56821;52.486;4.680;2023-06-19T00:32:10;35.81;33.26;39.89;;
69615;Laerm;56821;52.486;4.680;2023-06-19T00:32:21;35.78;32.92;39.22;;
69615;Laerm;56821;52.486;4.680;2023-06-19T00:32:31;35.95;32.62;40.55;;
69615;Laerm;56821;52.486;4.680;2023-06-19T00:32:41;34.30;32.12;37.21;;
69615;Laerm;56821;52.486;4.680;2023-06-19T00:32:59;35.51;32.58;41.82;;
69615;Laerm;56821;52.486;4.680;2023-06-19T00:33:12;35.02;32.98;38.59;;
69615;Laerm;56821;52.486;4.680;2023-06-19T00:33:22;35.12;32.84;36.89;;
69615;Laerm;56821;52.486;4.680;2023-06-19T00:33:32;38.05;35.42;40.69;;
69615;Laerm;56821;52.486;4.680;2023-06-19T00:33:43;38.77;36.99;41.01;;
69615;Laerm;56821;52.486;4.680;2023-06-19T00:33:54;39.90;37.98;42.93;;
69615;Laerm;56821;52.486;4.680;2023-06-19T00:34:04;40.39;37.94;43.39;;
69615;Laerm;56821;52.486;4.680;2023-06-19T00:34:15;40.41;38.74;42.85;;
69615;Laerm;56821;52.486;4.680;2023-06-19T00:34:25;40.07;38.63;42.42;;
69615;Laerm;56821;52.486;4.680;2023-06-19T00:34:35;40.42;38.87;41.89;;
69615;Laerm;56821;52.486;4.680;2023-06-19T00:34:47;38.90;36.30;41.80;;
69615;Laerm;56821;52.486;4.680;2023-06-19T00:34:57;37.69;36.19;39.22;;
69615;Laerm;56821;52.486;4.680;2023-06-19T00:35:07;38.36;36.87;40.07;;
69615;Laerm;56821;52.486;4.680;2023-06-19T00:35:17;41.20;38.27;51.70;;
69615;Laerm;56821;52.486;4.680;2023-06-19T00:35:28;38.22;36.82;41.75;;
69615;Laerm;56821;52.486;4.680;2023-06-19T00:35:38;38.05;36.68;40.58;;
69615;Laerm;56821;52.486;4.680;2023-06-19T00:35:51;39.46;37.28;41.31;;
69615;Laerm;56821;52.486;4.680;2023-06-19T00:36:02;42.06;39.57;44.88;;
69615;Laerm;56821;52.486;4.680;2023-06-19T00:36:12;41.57;39.88;43.75;;
69615;Laerm;56821;52.486;4.680;2023-06-19T00:36:23;42.02;39.36;45.10;;
69615;Laerm;56821;52.486;4.680;2023-06-19T00:36:35;43.36;41.11;49.98;;
69615;Laerm;56821;52.486;4.680;2023-06-19T00:36:50;42.04;39.03;44.08;;
69615;Laerm;56821;52.486;4.680;2023-06-19T00:37:01;39.62;37.79;48.21;;
69615;Laerm;56821;52.486;4.680;2023-06-19T00:37:11;39.54;37.66;50.25;;
69615;Laerm;56821;52.486;4.680;2023-06-19T00:37:23;38.48;36.45;41.34;;
69615;Laerm;56821;52.486;4.680;2023-06-19T00:37:33;39.13;36.80;41.34;;
69615;Laerm;56821;52.486;4.680;2023-06-19T00:37:44;39.05;36.98;46.91;;
69615;Laerm;56821;52.486;4.680;2023-06-19T00:37:57;39.57;36.88;42.53;;
69615;Laerm;56821;52.486;4.680;2023-06-19T00:38:10;38.82;36.78;40.91;;
69615;Laerm;56821;52.486;4.680;2023-06-19T00:38:22;38.86;36.79;41.45;;
69615;Laerm;56821;52.486;4.680;2023-06-19T00:38:33;38.43;36.08;39.74;;
69615;Laerm;56821;52.486;4.680;2023-06-19T00:38:43;39.57;37.67;41.14;;
69615;Laerm;56821;52.486;4.680;2023-06-19T00:38:54;39.80;37.22;44.49;;
69615;Laerm;56821;52.486;4.680;2023-06-19T00:39:04;38.19;36.63;40.08;;
69615;Laerm;56821;52.486;4.680;2023-06-19T00:39:15;37.99;36.57;39.98;;
69615;Laerm;56821;52.486;4.680;2023-06-19T00:39:25;37.93;36.34;39.41;;
69615;Laerm;56821;52.486;4.680;2023-06-19T00:39:36;38.06;36.39;40.61;;
69615;Laerm;56821;52.486;4.680;2023-06-19T00:39:46;38.20;36.48;39.57;;
69615;Laerm;56821;52.486;4.680;2023-06-19T00:39:56;37.86;36.14;39.90;;
69615;Laerm;56821;52.486;4.680;2023-06-19T00:40:07;38.67;37.00;40.52;;
69615;Laerm;56821;52.486;4.680;2023-06-19T00:40:31;38.45;36.47;41.10;;
69615;Laerm;56821;52.486;4.680;2023-06-19T00:40:41;38.16;36.43;41.68;;
69615;Laerm;56821;52.486;4.680;2023-06-19T00:40:52;37.17;34.71;39.14;;
69615;Laerm;56821;52.486;4.680;2023-06-19T00:41:02;35.55;34.00;37.49;;
69615;Laerm;56821;52.486;4.680;2023-06-19T00:41:13;35.85;33.58;38.99;;
69615;Laerm;56821;52.486;4.680;2023-06-19T00:41:25;35.62;34.01;37.44;;
69615;Laerm;56821;52.486;4.680;2023-06-19T00:41:37;35.88;33.33;46.07;;
69615;Laerm;56821;52.486;4.680;2023-06-19T00:41:49;35.89;34.00;38.24;;
69615;Laerm;56821;52.486;4.680;2023-06-19T00:41:59;35.43;33.84;37.23;;
69615;Laerm;56821;52.486;4.680;2023-06-19T00:42:09;36.35;34.33;38.88;;
69615;Laerm;56821;52.486;4.680;2023-06-19T00:42:20;37.48;35.63;39.12;;
69615;Laerm;56821;52.486;4.680;2023-06-19T00:42:30;37.33;35.42;41.34;;
69615;Laerm;56821;52.486;4.680;2023-06-19T00:42:40;38.97;35.72;47.42;;
69615;Laerm;56821;52.486;4.680;2023-06-19T00:42:50;37.92;36.13;40.02;;
69615;Laerm;56821;52.486;4.680;2023-06-19T00:43:01;38.82;37.39;40.80;;
69615;Laerm;56821;52.486;4.680;2023-06-19T00:43:11;40.76;39.40;42.91;;
69615;Laerm;56821;52.486;4.680;2023-06-19T00:43:22;40.74;39.00;42.21;;
69615;Laerm;56821;52.486;4.680;2023-06-19T00:43:33;43.02;39.26;52.27;;
69615;Laerm;56821;52.486;4.680;2023-06-19T00:43:43;41.88;36.02;54.05;;
69615;Laerm;56821;52.486;4.680;2023-06-19T00:43:53;36.54;35.21;38.12;;
69615;Laerm;56821;52.486;4.680;2023-06-19T00:44:04;37.80;34.94;40.55;;
69615;Laerm;56821;52.486;4.680;2023-06-19T00:44:14;39.01;36.94;40.76;;
69615;Laerm;56821;52.486;4.680;2023-06-19T00:44:24;40.46;38.22;43.46;;
69615;Laerm;56821;52.486;4.680;2023-06-19T00:44:35;40.06;38.02;41.39;;
69615;Laerm;56821;52.486;4.680;2023-06-19T00:44:45;39.26;37.24;41.03;;
69615;Laerm;56821;52.486;4.680;2023-06-19T00:44:55;39.27;36.45;41.25;;
69615;Laerm;56821;52.486;4.680;2023-06-19T00:45:05;37.53;35.90;38.94;;
69615;Laerm;56821;52.486;4.680;2023-06-19T00:45:16;38.27;36.00;40.03;;
69615;Laerm;56821;52.486;4.680;2023-06-19T00:45:26;37.33;35.84;40.84;;
69615;Laerm;56821;52.486;4.680;2023-06-19T00:45:36;36.97;35.05;39.04;;
69615;Laerm;56821;52.486;4.680;2023-06-19T00:45:47;37.99;36.57;40.20;;
69615;Laerm;56821;52.486;4.680;2023-06-19T00:45:57;38.31;36.81;40.82;;
69615;Laerm;56821;52.486;4.680;2023-06-19T00:46:07;37.89;35.66;40.42;;
69615;Laerm;56821;52.486;4.680;2023-06-19T00:46:18;37.45;35.63;39.14;;
69615;Laerm;56821;52.486;4.680;2023-06-19T00:46:29;38.22;36.17;41.34;;
69615;Laerm;56821;52.486;4.680;2023-06-19T00:46:40;40.15;38.20;43.95;;
69615;Laerm;56821;52.486;4.680;2023-06-19T00:46:55;40.03;37.27;42.67;;
69615;Laerm;56821;52.486;4.680;2023-06-19T00:47:07;38.23;35.94;42.79;;
69615;Laerm;56821;52.486;4.680;2023-06-19T00:47:17;37.60;35.78;40.36;;
69615;Laerm;56821;52.486;4.680;2023-06-19T00:47:27;38.15;35.99;43.04;;
69615;Laerm;56821;52.486;4.680;2023-06-19T00:47:38;36.73;34.97;40.95;;
69615;Laerm;56821;52.486;4.680;2023-06-19T00:47:48;36.58;34.91;38.23;;
69615;Laerm;56821;52.486;4.680;2023-06-19T00:47:59;37.76;35.51;42.46;;
69615;Laerm;56821;52.486;4.680;2023-06-19T00:48:09;37.87;36.03;40.73;;
69615;Laerm;56821;52.486;4.680;2023-06-19T00:48:20;40.98;36.72;47.10;;
69615;Laerm;56821;52.486;4.680;2023-06-19T00:48:30;42.67;38.25;48.93;;
69615;Laerm;56821;52.486;4.680;2023-06-19T00:48:41;43.33;37.12;55.16;;
69615;Laerm;56821;52.486;4.680;2023-06-19T00:48:51;37.85;35.80;42.37;;
69615;Laerm;56821;52.486;4.680;2023-06-19T00:49:02;40.14;36.89;43.39;;
69615;Laerm;56821;52.486;4.680;2023-06-19T00:49:13;41.53;39.09;43.65;;
69615;Laerm;56821;52.486;4.680;2023-06-19T00:49:25;40.02;37.51;42.53;;
69615;Laerm;56821;52.486;4.680;2023-06-19T00:49:35;38.80;36.87;41.12;;
69615;Laerm;56821;52.486;4.680;2023-06-19T00:49:46;37.85;36.37;39.39;;
69615;Laerm;56821;52.486;4.680;2023-06-19T00:49:56;38.25;36.18;48.08;;
69615;Laerm;56821;52.486;4.680;2023-06-19T00:50:06;37.37;35.71;39.96;;
69615;Laerm;56821;52.486;4.680;2023-06-19T00:50:17;37.42;35.69;40.23;;
69615;Laerm;56821;52.486;4.680;2023-06-19T00:50:30;37.53;35.78;45.18;;
69615;Laerm;56821;52.486;4.680;2023-06-19T00:50:41;38.45;36.36;40.37;;
69615;Laerm;56821;52.486;4.680;2023-06-19T00:50:51;38.03;35.92;39.87;;
69615;Laerm;56821;52.486;4.680;2023-06-19T00:51:01;37.88;36.34;40.11;;
69615;Laerm;56821;52.486;4.680;2023-06-19T00:51:11;39.47;37.47;42.90;;
69615;Laerm;56821;52.486;4.680;2023-06-19T00:51:22;40.58;38.08;44.62;;
69615;Laerm;56821;52.486;4.680;2023-06-19T00:51:32;40.70;38.67;45.90;;
69615;Laerm;56821;52.486;4.680;2023-06-19T00:51:42;42.65;38.09;49.99;;
69615;Laerm;56821;52.486;4.680;2023-06-19T00:51:52;41.83;37.29;48.12;;
69615;Laerm;56821;52.486;4.680;2023-06-19T00:52:03;40.82;37.77;47.85;;
69615;Laerm;56821;52.486;4.680;2023-06-19T00:52:13;38.68;36.51;42.50;;
69615;Laerm;56821;52.486;4.680;2023-06-19T00:52:24;37.91;34.88;45.23;;
69615;Laerm;56821;52.486;4.680;2023-06-19T00:52:34;36.49;34.26;38.49;;
69615;Laerm;56821;52.486;4.680;2023-06-19T00:52:44;36.25;34.41;38.23;;
69615;Laerm;56821;52.486;4.680;2023-06-19T00:52:54;36.80;35.43;38.22;;
69615;Laerm;56821;52.486;4.680;2023-06-19T00:53:04;37.53;35.42;40.52;;
69615;Laerm;56821;52.486;4.680;2023-06-19T00:53:17;37.56;35.78;39.24;;
69615;Laerm;56821;52.486;4.680;2023-06-19T00:53:29;37.77;35.29;40.17;;
69615;Laerm;56821;52.486;4.680;2023-06-19T00:53:40;36.29;33.96;39.85;;
69615;Laerm;56821;52.486;4.680;2023-06-19T00:53:50;35.64;34.07;38.46;;
69615;Laerm;56821;52.486;4.680;2023-06-19T00:54:01;37.38;35.27;39.83;;
69615;Laerm;56821;52.486;4.680;2023-06-19T00:54:11;37.51;35.49;41.08;;
69615;Laerm;56821;52.486;4.680;2023-06-19T00:54:21;37.39;34.42;41.11;;
69615;Laerm;56821;52.486;4.680;2023-06-19T00:54:32;35.79;33.29;38.42;;
69615;Laerm;56821;52.486;4.680;2023-06-19T00:54:43;35.52;32.98;37.66;;
69615;Laerm;56821;52.486;4.680;2023-06-19T00:54:53;36.75;34.89;40.38;;
69615;Laerm;56821;52.486;4.680;2023-06-19T00:55:04;36.03;34.49;38.50;;
69615;Laerm;56821;52.486;4.680;2023-06-19T00:55:15;35.85;34.45;37.97;;
69615;Laerm;56821;52.486;4.680;2023-06-19T00:55:28;37.18;35.29;41.37;;
69615;Laerm;56821;52.486;4.680;2023-06-19T00:55:39;37.23;34.93;39.58;;
69615;Laerm;56821;52.486;4.680;2023-06-19T00:55:50;37.36;35.54;39.67;;
69615;Laerm;56821;52.486;4.680;2023-06-19T00:56:01;37.23;35.36;38.97;;
69615;Laerm;56821;52.486;4.680;2023-06-19T00:56:11;38.26;36.24;41.78;;
69615;Laerm;56821;52.486;4.680;2023-06-19T00:56:22;39.45;37.06;43.65;;
69615;Laerm;56821;52.486;4.680;2023-06-19T00:56:32;37.28;34.72;39.82;;
69615;Laerm;56821;52.486;4.680;2023-06-19T00:56:44;35.84;34.31;39.41;;
69615;Laerm;56821;52.486;4.680;2023-06-19T00:56:54;36.10;34.68;38.09;;
69615;Laerm;56821;52.486;4.680;2023-06-19T00:57:05;36.26;34.79;38.45;;
69615;Laerm;56821;52.486;4.680;2023-06-19T00:57:15;37.82;35.22;40.42;;
69615;Laerm;56821;52.486;4.680;2023-06-19T00:57:25;41.84;37.84;44.33;;
69615;Laerm;56821;52.486;4.680;2023-06-19T00:57:36;40.61;35.78;46.33;;
69615;Laerm;56821;52.486;4.680;2023-06-19T00:57:46;37.02;35.48;40.73;;
69615;Laerm;56821;52.486;4.680;2023-06-19T00:57:56;39.01;34.93;50.39;;
69615;Laerm;56821;52.486;4.680;2023-06-19T00:58:07;37.88;35.39;46.44;;
69615;Laerm;56821;52.486;4.680;2023-06-19T00:58:18;37.47;35.05;39.56;;
69615;Laerm;56821;52.486;4.680;2023-06-19T00:58:29;36.86;34.76;39.18;;
69615;Laerm;56821;52.486;4.680;2023-06-19T00:58:39;36.15;34.30;38.08;;
69615;Laerm;56821;52.486;4.680;2023-06-19T00:58:50;35.94;34.20;37.64;;
69615;Laerm;56821;52.486;4.680;2023-06-19T00:59:01;37.43;35.49;43.04;;
69615;Laerm;56821;52.486;4.680;2023-06-19T00:59:14;40.57;35.35;51.75;;
69615;Laerm;56821;52.486;4.680;2023-06-19T00:59:25;37.38;34.78;40.95;;
69615;Laerm;56821;52.486;4.680;2023-06-19T00:59:35;37.95;35.94;40.40;;
69615;Laerm;56821;52.486;4.680;2023-06-19T00:59:46;38.10;36.40;39.66;;
69615;Laerm;56821;52.486;4.680;2023-06-19T00:59:56;38.96;37.54;40.47;;
69615;Laerm;56821;52.486;4.680;2023-06-19T01:00:07;40.48;37.63;44.32;;